createdAt,value
2022-12-02T00:00:17.130Z,23
2022-12-02T00:01:17.153Z,17
2022-12-02T00:02:17.128Z,20
2022-12-02T00:03:17.252Z,21
2022-12-02T00:04:17.240Z,22
2022-12-02T00:05:17.217Z,20
2022-12-02T00:06:17.129Z,21
2022-12-02T00:07:17.125Z,22
2022-12-02T00:08:17.216Z,21
2022-12-02T00:09:17.128Z,21
2022-12-02T00:10:17.123Z,22
2022-12-02T00:11:17.122Z,21
2022-12-02T00:12:17.133Z,23
2022-12-02T00:13:17.150Z,23
2022-12-02T00:14:17.124Z,21
2022-12-02T00:15:17.131Z,22
2022-12-02T00:16:17.160Z,24
2022-12-02T00:17:17.135Z,25
2022-12-02T00:18:17.141Z,23
2022-12-02T00:19:17.214Z,21
2022-12-02T00:20:17.162Z,23
2022-12-02T00:21:17.131Z,24
2022-12-02T00:22:17.140Z,24
2022-12-02T00:23:17.134Z,23
2022-12-02T00:24:17.131Z,24
2022-12-02T00:25:17.148Z,24
2022-12-02T00:26:17.200Z,22
2022-12-02T00:27:17.149Z,17
2022-12-02T00:28:17.136Z,29
2022-12-02T00:29:17.128Z,26
2022-12-02T00:30:17.135Z,25
2022-12-02T00:31:17.196Z,22
2022-12-02T00:32:17.124Z,23
2022-12-02T00:33:17.178Z,23
2022-12-02T00:34:17.145Z,20
2022-12-02T00:35:17.118Z,24
2022-12-02T00:36:17.154Z,24
2022-12-02T00:41:17.136Z,21
2022-12-02T00:42:31.264Z,23
2022-12-02T00:43:45.343Z,23
2022-12-02T00:44:59.439Z,26
2022-12-02T00:46:13.653Z,18
2022-12-02T00:47:09.136Z,20
2022-12-02T00:47:48.213Z,26
2022-12-02T00:48:25.251Z,24
2022-12-02T00:49:17.128Z,21
2022-12-02T00:51:17.140Z,23
2022-12-02T00:52:17.127Z,21
2022-12-02T00:53:17.127Z,24
2022-12-02T00:54:17.119Z,23
2022-12-02T00:55:17.323Z,20
2022-12-02T00:56:17.162Z,20
2022-12-02T00:57:17.142Z,24
2022-12-02T00:58:17.118Z,27
2022-12-02T00:59:17.112Z,19
2022-12-02T01:00:17.132Z,20
2022-12-02T01:01:17.221Z,17
2022-12-02T01:02:17.194Z,23
2022-12-02T01:03:17.126Z,21
2022-12-02T01:04:17.131Z,19
2022-12-02T01:05:17.118Z,22
2022-12-02T01:06:17.125Z,22
2022-12-02T01:07:17.168Z,22
2022-12-02T01:08:17.138Z,18
2022-12-02T01:09:17.115Z,19
2022-12-02T01:10:17.136Z,22
2022-12-02T01:11:17.124Z,23
2022-12-02T01:12:17.130Z,21
2022-12-02T01:13:17.134Z,19
2022-12-02T01:14:17.184Z,21
2022-12-02T01:15:17.139Z,22
2022-12-02T01:16:17.157Z,20
2022-12-02T01:17:17.131Z,18
2022-12-02T01:18:17.140Z,20
2022-12-02T01:19:17.142Z,17
2022-12-02T01:20:17.129Z,21
2022-12-02T01:21:17.195Z,19
2022-12-02T01:22:17.115Z,18
2022-12-02T01:23:17.127Z,19
2022-12-02T01:24:17.120Z,20
2022-12-02T01:25:17.129Z,19
2022-12-02T01:26:17.128Z,19
2022-12-02T01:27:17.153Z,17
2022-12-02T01:28:17.121Z,21
2022-12-02T01:29:17.123Z,23
2022-12-02T01:30:17.134Z,21
2022-12-02T01:31:17.153Z,22
2022-12-02T01:32:17.119Z,19
2022-12-02T01:33:17.147Z,21
2022-12-02T01:34:17.119Z,20
2022-12-02T01:35:17.123Z,21
2022-12-02T01:36:17.125Z,21
2022-12-02T01:37:17.117Z,16
2022-12-02T01:38:17.123Z,19
2022-12-02T01:39:17.125Z,19
2022-12-02T01:40:17.130Z,22
2022-12-02T01:41:17.113Z,22
2022-12-02T01:42:17.121Z,20
2022-12-02T01:43:17.127Z,22
2022-12-02T01:44:17.126Z,22
2022-12-02T01:45:17.117Z,21
2022-12-02T01:46:17.187Z,18
2022-12-02T01:47:17.119Z,22
2022-12-02T01:48:17.115Z,24
2022-12-02T01:49:17.115Z,20
2022-12-02T01:50:17.120Z,15
2022-12-02T01:51:17.123Z,21
2022-12-02T01:52:17.117Z,22
2022-12-02T01:53:17.114Z,18
2022-12-02T01:54:17.114Z,22
2022-12-02T01:55:17.127Z,21
2022-12-02T01:56:17.130Z,19
2022-12-02T01:57:17.117Z,19
2022-12-02T01:58:17.163Z,20
2022-12-02T01:59:17.118Z,20
2022-12-02T02:00:17.121Z,20
2022-12-02T02:01:17.231Z,22
2022-12-02T02:02:17.169Z,14
2022-12-02T02:03:17.123Z,18
2022-12-02T02:04:17.131Z,17
2022-12-02T02:05:17.115Z,20
2022-12-02T02:06:17.129Z,19
2022-12-02T02:07:17.114Z,18
2022-12-02T02:08:17.120Z,19
2022-12-02T02:09:17.113Z,18
2022-12-02T02:10:17.113Z,16
2022-12-02T02:11:17.110Z,17
2022-12-02T02:12:17.117Z,18
2022-12-02T02:13:17.124Z,18
2022-12-02T02:14:17.109Z,17
2022-12-02T02:15:17.122Z,20
2022-12-02T02:16:17.199Z,19
2022-12-02T02:17:17.131Z,16
2022-12-02T02:18:17.124Z,18
2022-12-02T02:19:17.117Z,19
2022-12-02T02:20:17.123Z,18
2022-12-02T02:21:17.155Z,19
2022-12-02T02:22:17.203Z,18
2022-12-02T02:23:17.108Z,18
2022-12-02T02:24:17.117Z,17
2022-12-02T02:25:20.372Z,19
2022-12-02T02:26:17.114Z,21
2022-12-02T02:27:17.113Z,18
2022-12-02T02:28:17.128Z,18
2022-12-02T02:29:17.211Z,19
2022-12-02T02:30:17.107Z,18
2022-12-02T02:31:17.218Z,17
2022-12-02T02:32:17.128Z,19
2022-12-02T02:33:17.484Z,21
2022-12-02T02:34:17.113Z,17
2022-12-02T02:35:17.108Z,20
2022-12-02T02:36:17.179Z,19
2022-12-02T02:37:17.116Z,19
2022-12-02T02:38:17.132Z,18
2022-12-02T02:39:17.122Z,19
2022-12-02T02:40:17.120Z,19
2022-12-02T02:41:17.112Z,20
2022-12-02T02:42:17.117Z,16
2022-12-02T02:43:17.135Z,18
2022-12-02T02:44:21.363Z,22
2022-12-02T02:45:17.109Z,19
2022-12-02T02:46:17.233Z,19
2022-12-02T02:47:17.141Z,19
2022-12-02T02:48:17.111Z,19
2022-12-02T02:49:17.112Z,16
2022-12-02T02:50:17.126Z,20
2022-12-02T02:51:17.122Z,17
2022-12-02T02:52:17.100Z,20
2022-12-02T02:53:17.116Z,22
2022-12-02T02:54:17.125Z,19
2022-12-02T02:55:17.121Z,19
2022-12-02T02:56:17.168Z,18
2022-12-02T02:57:17.114Z,21
2022-12-02T02:58:17.099Z,20
2022-12-02T02:59:17.111Z,21
2022-12-02T03:00:17.149Z,20
2022-12-02T03:01:17.196Z,13
2022-12-02T03:02:17.169Z,20
2022-12-02T03:03:17.120Z,20
2022-12-02T03:04:17.126Z,18
2022-12-02T03:06:17.109Z,23
2022-12-02T03:07:17.111Z,19
2022-12-02T03:08:17.186Z,21
2022-12-02T03:09:17.113Z,19
2022-12-02T03:10:17.109Z,20
2022-12-02T03:11:27.129Z,21
2022-12-02T03:12:17.110Z,18
2022-12-02T03:13:17.124Z,23
2022-12-02T03:14:17.125Z,23
2022-12-02T03:15:17.114Z,24
2022-12-02T03:16:17.230Z,19
2022-12-02T03:17:17.120Z,20
2022-12-02T03:18:17.119Z,18
2022-12-02T03:19:17.113Z,22
2022-12-02T03:20:17.211Z,21
2022-12-02T03:21:17.126Z,20
2022-12-02T03:22:17.126Z,22
2022-12-02T03:23:17.114Z,24
2022-12-02T03:24:17.168Z,22
2022-12-02T03:25:17.109Z,22
2022-12-02T03:26:17.110Z,23
2022-12-02T03:27:17.119Z,28
2022-12-02T03:28:17.107Z,17
2022-12-02T03:29:17.099Z,22
2022-12-02T03:30:18.515Z,22
2022-12-02T03:31:17.226Z,22
2022-12-02T03:32:17.114Z,24
2022-12-02T03:33:17.105Z,20
2022-12-02T03:34:17.122Z,20
2022-12-02T03:35:17.119Z,24
2022-12-02T03:36:17.101Z,23
2022-12-02T03:37:17.099Z,22
2022-12-02T03:38:17.134Z,23
2022-12-02T03:39:17.111Z,20
2022-12-02T03:40:17.121Z,24
2022-12-02T03:41:17.130Z,25
2022-12-02T03:42:17.135Z,16
2022-12-02T03:43:17.103Z,20
2022-12-02T03:44:17.097Z,21
2022-12-02T03:45:17.106Z,21
2022-12-02T03:46:17.227Z,20
2022-12-02T03:47:17.109Z,25
2022-12-02T03:48:17.101Z,22
2022-12-02T03:49:17.117Z,23
2022-12-02T03:50:17.133Z,25
2022-12-02T03:51:17.125Z,26
2022-12-02T03:52:17.157Z,22
2022-12-02T03:53:17.100Z,22
2022-12-02T03:54:17.110Z,22
2022-12-02T03:55:17.106Z,24
2022-12-02T03:56:17.117Z,22
2022-12-02T03:57:17.109Z,26
2022-12-02T03:58:17.115Z,21
2022-12-02T03:59:17.115Z,25
2022-12-02T04:00:17.111Z,24
2022-12-02T04:01:17.191Z,22
2022-12-02T04:02:17.226Z,22
2022-12-02T04:03:17.123Z,19
2022-12-02T04:04:17.134Z,25
2022-12-02T04:05:17.109Z,24
2022-12-02T04:06:17.176Z,27
2022-12-02T04:07:17.113Z,21
2022-12-02T04:08:17.125Z,22
2022-12-02T04:09:17.103Z,26
2022-12-02T04:10:17.092Z,26
2022-12-02T04:11:33.434Z,24
2022-12-02T04:12:17.124Z,26
2022-12-02T04:13:17.105Z,24
2022-12-02T04:14:17.096Z,25
2022-12-02T04:15:17.096Z,24
2022-12-02T04:16:17.185Z,26
2022-12-02T04:17:17.171Z,30
2022-12-02T04:18:17.101Z,24
2022-12-02T04:19:17.103Z,24
2022-12-02T04:20:17.126Z,22
2022-12-02T04:21:17.110Z,25
2022-12-02T04:22:17.099Z,25
2022-12-02T04:23:17.109Z,28
2022-12-02T04:24:17.165Z,25
2022-12-02T04:25:17.104Z,22
2022-12-02T04:26:17.115Z,22
2022-12-02T04:27:17.102Z,26
2022-12-02T04:28:17.102Z,29
2022-12-02T04:29:17.102Z,28
2022-12-02T04:30:17.099Z,24
2022-12-02T04:31:17.218Z,23
2022-12-02T04:32:17.117Z,30
2022-12-02T04:33:17.118Z,26
2022-12-02T04:34:17.154Z,27
2022-12-02T04:35:17.131Z,27
2022-12-02T04:36:17.106Z,19
2022-12-02T04:37:17.113Z,23
2022-12-02T04:38:17.104Z,28
2022-12-02T04:39:17.102Z,26
2022-12-02T04:40:17.107Z,22
2022-12-02T04:41:17.086Z,27
2022-12-02T04:42:17.107Z,22
2022-12-02T04:43:17.094Z,29
2022-12-02T04:44:18.422Z,29
2022-12-02T04:45:17.178Z,25
2022-12-02T04:46:17.155Z,28
2022-12-02T04:47:17.095Z,24
2022-12-02T04:48:17.104Z,27
2022-12-02T04:49:17.107Z,23
2022-12-02T04:50:17.117Z,26
2022-12-02T04:51:17.094Z,29
2022-12-02T04:52:17.145Z,28
2022-12-02T04:53:17.117Z,26
2022-12-02T04:54:17.108Z,28
2022-12-02T04:55:17.134Z,27
2022-12-02T04:56:17.093Z,23
2022-12-02T04:57:17.105Z,26
2022-12-02T04:58:17.101Z,29
2022-12-02T04:59:17.137Z,30
2022-12-02T05:00:17.095Z,29
2022-12-02T05:01:17.103Z,26
2022-12-02T05:02:17.108Z,29
2022-12-02T05:03:17.130Z,29
2022-12-02T05:04:17.396Z,31
2022-12-02T05:05:17.115Z,24
2022-12-02T05:06:17.137Z,28
2022-12-02T05:07:17.125Z,31
2022-12-02T05:08:17.108Z,26
2022-12-02T05:09:17.092Z,29
2022-12-02T05:10:17.100Z,28
2022-12-02T05:11:39.468Z,23
2022-12-02T05:12:17.096Z,24
2022-12-02T05:13:17.099Z,24
2022-12-02T05:14:17.100Z,28
2022-12-02T05:15:17.108Z,28
2022-12-02T05:16:17.248Z,27
2022-12-02T05:17:17.111Z,28
2022-12-02T05:18:17.107Z,37
2022-12-02T05:19:17.105Z,28
2022-12-02T05:20:17.123Z,26
2022-12-02T05:21:17.096Z,24
2022-12-02T05:22:17.181Z,29
2022-12-02T05:23:17.095Z,30
2022-12-02T05:24:17.086Z,30
2022-12-02T05:25:17.080Z,26
2022-12-02T05:26:17.103Z,32
2022-12-02T05:27:17.092Z,23
2022-12-02T05:28:17.089Z,28
2022-12-02T05:29:17.162Z,29
2022-12-02T05:30:17.109Z,31
2022-12-02T05:31:17.237Z,29
2022-12-02T05:32:17.092Z,33
2022-12-02T05:33:17.103Z,29
2022-12-02T05:34:17.118Z,30
2022-12-02T05:35:17.139Z,27
2022-12-02T05:36:17.101Z,26
2022-12-02T05:37:17.172Z,32
2022-12-02T05:38:17.163Z,32
2022-12-02T05:39:17.361Z,31
2022-12-02T05:40:17.463Z,30
2022-12-02T05:41:17.298Z,31
2022-12-02T05:42:17.100Z,26
2022-12-02T05:43:17.108Z,29
2022-12-02T05:44:17.093Z,30
2022-12-02T05:45:17.133Z,30
2022-12-02T05:46:17.207Z,28
2022-12-02T05:47:17.091Z,27
2022-12-02T05:48:17.096Z,30
2022-12-02T05:49:17.106Z,30
2022-12-02T05:50:17.126Z,27
2022-12-02T05:51:17.177Z,25
2022-12-02T05:52:17.206Z,28
2022-12-02T05:53:17.111Z,32
2022-12-02T05:54:17.102Z,32
2022-12-02T05:55:17.093Z,30
2022-12-02T05:56:17.090Z,27
2022-12-02T05:57:17.147Z,31
2022-12-02T05:58:17.104Z,30
2022-12-02T05:59:17.102Z,35
2022-12-02T06:00:17.102Z,27
2022-12-02T06:01:17.111Z,34
2022-12-02T06:02:17.189Z,28
2022-12-02T06:03:17.271Z,34
2022-12-02T06:04:17.080Z,28
2022-12-02T06:05:17.112Z,33
2022-12-02T06:06:17.190Z,33
2022-12-02T06:07:17.086Z,31
2022-12-02T06:08:17.140Z,23
2022-12-02T06:09:17.102Z,28
2022-12-02T06:10:17.098Z,31
2022-12-02T06:12:17.092Z,35
2022-12-02T06:13:17.165Z,33
2022-12-02T06:14:17.085Z,33
2022-12-02T06:15:17.157Z,32
2022-12-02T06:16:17.188Z,30
2022-12-02T06:17:17.089Z,31
2022-12-02T06:18:17.093Z,32
2022-12-02T06:19:17.091Z,29
2022-12-02T06:20:17.124Z,35
2022-12-02T06:21:17.109Z,29
2022-12-02T06:22:17.139Z,30
2022-12-02T06:23:17.094Z,33
2022-12-02T06:24:17.097Z,32
2022-12-02T06:25:17.158Z,34
2022-12-02T06:26:17.084Z,34
2022-12-02T06:27:17.093Z,29
2022-12-02T06:28:17.197Z,24
2022-12-02T06:29:17.128Z,27
2022-12-02T06:30:17.147Z,32
2022-12-02T06:31:17.277Z,28
2022-12-02T06:32:17.202Z,37
2022-12-02T06:33:22.339Z,31
2022-12-02T06:34:17.096Z,31
2022-12-02T06:35:17.123Z,34
2022-12-02T06:36:17.163Z,32
2022-12-02T06:37:17.126Z,34
2022-12-02T06:38:17.092Z,34
2022-12-02T06:39:17.091Z,38
2022-12-02T06:40:28.038Z,34
2022-12-02T06:41:17.113Z,33
2022-12-02T06:42:17.105Z,33
2022-12-02T06:43:17.089Z,32
2022-12-02T06:44:17.098Z,30
2022-12-02T06:45:17.095Z,33
2022-12-02T06:46:17.137Z,32
2022-12-02T06:47:17.103Z,31
2022-12-02T06:48:17.099Z,35
2022-12-02T06:49:17.095Z,33
2022-12-02T06:50:17.121Z,32
2022-12-02T06:51:17.090Z,34
2022-12-02T06:52:17.085Z,26
2022-12-02T06:53:17.112Z,33
2022-12-02T06:54:17.087Z,34
2022-12-02T06:55:17.155Z,33
2022-12-02T06:56:17.092Z,32
2022-12-02T06:57:17.171Z,32
2022-12-02T06:58:17.099Z,32
2022-12-02T06:59:17.083Z,31
2022-12-02T07:00:17.085Z,31
2022-12-02T07:01:17.186Z,35
2022-12-02T07:02:17.156Z,31
2022-12-02T07:08:17.125Z,32
2022-12-02T07:09:18.303Z,30
2022-12-02T07:10:17.086Z,38
2022-12-02T07:11:17.117Z,30
2022-12-02T07:12:17.087Z,36
2022-12-02T07:13:17.098Z,32
2022-12-02T07:14:17.094Z,33
2022-12-02T07:15:17.119Z,38
2022-12-02T07:16:17.172Z,38
2022-12-02T07:17:17.090Z,30
2022-12-02T07:18:17.150Z,35
2022-12-02T07:19:17.095Z,36
2022-12-02T07:20:17.091Z,30
2022-12-02T07:21:17.094Z,34
2022-12-02T07:22:17.077Z,31
2022-12-02T07:23:17.086Z,32
2022-12-02T07:24:17.113Z,34
2022-12-02T07:25:17.095Z,36
2022-12-02T07:26:17.174Z,27
2022-12-02T07:27:17.104Z,34
2022-12-02T07:28:17.094Z,29
2022-12-02T07:29:17.097Z,33
2022-12-02T07:30:17.081Z,33
2022-12-02T07:31:17.128Z,34
2022-12-02T07:32:17.165Z,36
2022-12-02T07:33:17.088Z,30
2022-12-02T07:34:17.090Z,24
2022-12-02T07:35:17.100Z,30
2022-12-02T07:36:17.091Z,35
2022-12-02T07:37:17.095Z,37
2022-12-02T07:38:23.750Z,33
2022-12-02T07:39:17.114Z,29
2022-12-02T07:40:17.086Z,35
2022-12-02T07:41:17.094Z,31
2022-12-02T07:42:17.089Z,35
2022-12-02T07:43:17.116Z,36
2022-12-02T07:44:17.116Z,34
2022-12-02T07:45:17.122Z,34
2022-12-02T07:46:17.160Z,35
2022-12-02T07:47:17.309Z,32
2022-12-02T07:48:17.097Z,37
2022-12-02T07:49:17.110Z,35
2022-12-02T07:50:17.104Z,38
2022-12-02T07:51:17.101Z,34
2022-12-02T07:52:17.117Z,33
2022-12-02T07:53:17.094Z,29
2022-12-02T07:54:17.094Z,37
2022-12-02T07:55:20.184Z,35
2022-12-02T07:56:17.087Z,32
2022-12-02T07:57:17.092Z,35
2022-12-02T07:58:17.111Z,27
2022-12-02T07:59:17.102Z,36
2022-12-02T08:00:17.343Z,37
2022-12-02T08:01:19.687Z,36
2022-12-02T08:02:17.092Z,36
2022-12-02T08:03:17.109Z,28
2022-12-02T08:04:17.189Z,33
2022-12-02T08:05:17.171Z,34
2022-12-02T08:06:17.095Z,29
2022-12-02T08:07:17.084Z,34
2022-12-02T08:08:17.078Z,32
2022-12-02T08:09:17.090Z,36
2022-12-02T08:10:17.142Z,35
2022-12-02T08:11:17.090Z,33
2022-12-02T08:12:17.085Z,38
2022-12-02T08:13:17.120Z,32
2022-12-02T08:14:17.095Z,29
2022-12-02T08:15:17.103Z,39
2022-12-02T08:16:17.184Z,36
2022-12-02T08:17:17.114Z,35
2022-12-02T08:18:17.196Z,32
2022-12-02T08:19:17.127Z,36
2022-12-02T08:20:17.096Z,36
2022-12-02T08:21:17.087Z,32
2022-12-02T08:22:17.101Z,38
2022-12-02T08:23:17.095Z,34
2022-12-02T08:24:17.088Z,35
2022-12-02T08:25:17.089Z,40
2022-12-02T08:26:17.131Z,41
2022-12-02T08:27:17.141Z,39
2022-12-02T08:28:17.096Z,39
2022-12-02T08:29:17.081Z,40
2022-12-02T08:30:17.100Z,33
2022-12-02T08:31:17.132Z,32
2022-12-02T08:32:27.096Z,39
2022-12-02T08:33:17.093Z,36
2022-12-02T08:34:17.086Z,39
2022-12-02T08:35:17.087Z,34
2022-12-02T08:36:17.115Z,28
2022-12-02T08:37:17.074Z,29
2022-12-02T08:38:17.084Z,37
2022-12-02T08:39:17.094Z,33
2022-12-02T08:40:17.169Z,35
2022-12-02T08:41:17.105Z,35
2022-12-02T08:42:17.106Z,33
2022-12-02T08:43:17.088Z,30
2022-12-02T08:44:17.090Z,39
2022-12-02T08:45:17.135Z,36
2022-12-02T08:46:17.153Z,33
2022-12-02T08:47:17.090Z,35
2022-12-02T08:48:17.083Z,36
2022-12-02T08:49:17.086Z,41
2022-12-02T08:50:17.072Z,35
2022-12-02T08:51:17.104Z,39
2022-12-02T08:52:17.131Z,42
2022-12-02T08:53:17.082Z,33
2022-12-02T08:54:17.094Z,34
2022-12-02T08:55:17.089Z,38
2022-12-02T08:56:17.109Z,41
2022-12-02T08:57:17.109Z,32
2022-12-02T08:58:17.092Z,35
2022-12-02T08:59:17.080Z,42
2022-12-02T09:00:17.092Z,31
2022-12-02T09:01:17.141Z,39
2022-12-02T09:02:17.153Z,33
2022-12-02T09:03:17.092Z,38
2022-12-02T09:04:17.092Z,39
2022-12-02T09:05:17.096Z,35
2022-12-02T09:06:17.159Z,34
2022-12-02T09:07:17.079Z,34
2022-12-02T09:08:17.147Z,36
2022-12-02T09:09:17.126Z,38
2022-12-02T09:10:17.138Z,37
2022-12-02T09:11:17.098Z,40
2022-12-02T09:12:17.111Z,37
2022-12-02T09:13:17.077Z,34
2022-12-02T09:14:17.115Z,40
2022-12-02T09:15:17.085Z,32
2022-12-02T09:16:17.250Z,44
2022-12-02T09:17:17.073Z,34
2022-12-02T09:18:17.092Z,38
2022-12-02T09:19:17.086Z,38
2022-12-02T09:20:17.110Z,38
2022-12-02T09:21:17.120Z,35
2022-12-02T09:22:17.074Z,41
2022-12-02T09:23:17.087Z,38
2022-12-02T09:24:17.075Z,37
2022-12-02T09:25:17.092Z,42
2022-12-02T09:26:17.111Z,40
2022-12-02T09:27:17.108Z,37
2022-12-02T09:28:17.083Z,34
2022-12-02T09:29:17.087Z,36
2022-12-02T09:30:17.083Z,36
2022-12-02T09:31:17.179Z,36
2022-12-02T09:32:33.437Z,32
2022-12-02T09:33:17.096Z,37
2022-12-02T09:34:17.081Z,39
2022-12-02T09:35:17.088Z,34
2022-12-02T09:36:17.119Z,32
2022-12-02T09:37:17.077Z,35
2022-12-02T09:38:17.078Z,34
2022-12-02T09:39:17.091Z,39
2022-12-02T09:40:17.087Z,38
2022-12-02T09:41:17.103Z,40
2022-12-02T09:42:17.077Z,35
2022-12-02T09:43:17.171Z,29
2022-12-02T09:44:17.093Z,36
2022-12-02T09:45:17.063Z,37
2022-12-02T09:46:21.355Z,38
2022-12-02T09:47:17.094Z,38
2022-12-02T09:48:17.085Z,34
2022-12-02T09:49:17.153Z,35
2022-12-02T09:50:17.135Z,34
2022-12-02T09:51:17.102Z,33
2022-12-02T09:52:21.061Z,38
2022-12-02T09:53:17.071Z,41
2022-12-02T09:54:17.081Z,35
2022-12-02T09:55:17.083Z,40
2022-12-02T09:56:17.089Z,29
2022-12-02T09:57:17.137Z,41
2022-12-02T09:58:17.087Z,36
2022-12-02T09:59:17.095Z,39
2022-12-02T10:00:17.130Z,34
2022-12-02T10:01:17.190Z,34
2022-12-02T10:02:17.175Z,40
2022-12-02T10:03:19.133Z,37
2022-12-02T10:04:17.132Z,39
2022-12-02T10:05:17.078Z,39
2022-12-02T10:06:17.101Z,41
2022-12-02T10:07:17.089Z,43
2022-12-02T10:08:17.147Z,40
2022-12-02T10:09:17.070Z,37
2022-12-02T10:10:17.085Z,36
2022-12-02T10:11:17.098Z,36
2022-12-02T10:12:17.069Z,36
2022-12-02T10:13:17.087Z,39
2022-12-02T10:14:17.120Z,38
2022-12-02T10:15:17.066Z,34
2022-12-02T10:16:17.212Z,34
2022-12-02T10:17:17.072Z,35
2022-12-02T10:18:17.095Z,35
2022-12-02T10:19:17.083Z,39
2022-12-02T10:20:17.071Z,34
2022-12-02T10:21:17.089Z,34
2022-12-02T10:22:17.069Z,36
2022-12-02T10:23:17.068Z,36
2022-12-02T10:24:17.086Z,34
2022-12-02T10:25:17.146Z,34
2022-12-02T10:26:17.077Z,33
2022-12-02T10:27:17.086Z,31
2022-12-02T10:28:17.066Z,35
2022-12-02T10:29:17.072Z,35
2022-12-02T10:30:17.079Z,33
2022-12-02T10:31:17.110Z,33
2022-12-02T10:32:39.446Z,38
2022-12-02T10:33:17.080Z,39
2022-12-02T10:34:17.140Z,31
2022-12-02T10:35:17.078Z,35
2022-12-02T10:36:17.133Z,36
2022-12-02T10:37:17.077Z,33
2022-12-02T10:38:17.059Z,34
2022-12-02T10:39:17.088Z,33
2022-12-02T10:40:17.069Z,37
2022-12-02T10:41:17.092Z,34
2022-12-02T10:42:17.062Z,34
2022-12-02T10:43:17.142Z,35
2022-12-02T10:44:17.079Z,35
2022-12-02T10:45:17.104Z,32
2022-12-02T10:46:17.182Z,34
2022-12-02T10:47:21.158Z,32
2022-12-02T10:48:17.080Z,32
2022-12-02T10:49:17.084Z,33
2022-12-02T10:50:17.257Z,34
2022-12-02T10:51:17.081Z,33
2022-12-02T10:52:17.067Z,34
2022-12-02T10:53:17.067Z,29
2022-12-02T10:54:17.082Z,32
2022-12-02T10:55:17.078Z,34
2022-12-02T10:56:17.088Z,32
2022-12-02T10:57:17.118Z,33
2022-12-02T10:58:17.071Z,32
2022-12-02T10:59:17.062Z,31
2022-12-02T11:00:17.188Z,31
2022-12-02T11:01:17.125Z,34
2022-12-02T11:02:17.141Z,32
2022-12-02T11:03:17.069Z,31
2022-12-02T11:04:17.072Z,31
2022-12-02T11:05:17.072Z,31
2022-12-02T11:06:17.081Z,34
2022-12-02T11:07:17.071Z,27
2022-12-02T11:08:19.450Z,35
2022-12-02T11:09:39.004Z,31
2022-12-02T11:10:17.093Z,34
2022-12-02T11:11:17.092Z,33
2022-12-02T11:12:17.084Z,32
2022-12-02T11:13:17.160Z,35
2022-12-02T11:14:17.067Z,37
2022-12-02T11:15:17.065Z,31
2022-12-02T11:16:17.163Z,30
2022-12-02T11:17:17.068Z,30
2022-12-02T11:18:17.065Z,30
2022-12-02T11:19:17.074Z,32
2022-12-02T11:20:17.172Z,26
2022-12-02T11:21:17.078Z,33
2022-12-02T11:22:17.070Z,33
2022-12-02T11:23:17.076Z,30
2022-12-02T11:24:17.079Z,34
2022-12-02T11:25:17.125Z,32
2022-12-02T11:26:17.083Z,31
2022-12-02T11:27:18.833Z,32
2022-12-02T11:28:17.051Z,36
2022-12-02T11:29:17.073Z,32
2022-12-02T11:30:17.076Z,32
2022-12-02T11:31:17.136Z,28
2022-12-02T11:33:17.054Z,27
2022-12-02T11:34:17.083Z,24
2022-12-02T11:35:19.075Z,24
2022-12-02T11:36:17.074Z,17
2022-12-02T11:37:17.055Z,18
2022-12-02T11:38:17.072Z,14
2022-12-02T11:39:17.081Z,12
2022-12-02T11:40:17.314Z,11
2022-12-02T11:41:17.089Z,13
2022-12-02T11:42:17.123Z,12
2022-12-02T11:43:17.072Z,11
2022-12-02T11:44:17.058Z,13
2022-12-02T11:45:17.069Z,11
2022-12-02T11:46:17.121Z,14
2022-12-02T11:47:17.112Z,10
2022-12-02T11:48:17.052Z,10
2022-12-02T11:49:17.072Z,13
2022-12-02T11:50:17.073Z,12
2022-12-02T11:51:17.101Z,10
2022-12-02T11:52:17.055Z,6
2022-12-02T11:53:17.127Z,8
2022-12-02T11:54:17.077Z,11
2022-12-02T11:55:17.069Z,9
2022-12-02T11:56:17.085Z,8
2022-12-02T11:57:17.075Z,6
2022-12-02T11:58:17.061Z,6
2022-12-02T11:59:17.066Z,8
2022-12-02T12:00:17.116Z,6
2022-12-02T12:05:17.062Z,7
2022-12-02T12:06:17.072Z,7
2022-12-02T12:07:17.070Z,7
2022-12-02T12:08:17.156Z,7
2022-12-02T12:09:17.066Z,7
2022-12-02T12:10:17.071Z,8
2022-12-02T12:11:17.081Z,6
2022-12-02T12:12:17.089Z,8
2022-12-02T12:13:17.055Z,7
2022-12-02T12:14:17.084Z,9
2022-12-02T12:15:17.083Z,9
2022-12-02T12:16:17.107Z,9
2022-12-02T12:17:17.067Z,9
2022-12-02T12:18:17.088Z,8
2022-12-02T12:19:17.085Z,8
2022-12-02T12:20:17.089Z,7
2022-12-02T12:21:17.137Z,7
2022-12-02T12:22:17.075Z,8
2022-12-02T12:23:17.076Z,8
2022-12-02T12:24:17.083Z,7
2022-12-02T12:25:20.857Z,7
2022-12-02T12:26:17.079Z,8
2022-12-02T12:27:17.069Z,8
2022-12-02T12:28:17.105Z,9
2022-12-02T12:29:17.083Z,7
2022-12-02T12:30:17.060Z,8
2022-12-02T12:31:17.127Z,10
2022-12-02T12:32:17.079Z,7
2022-12-02T12:33:17.072Z,8
2022-12-02T12:34:17.079Z,8
2022-12-02T12:35:17.118Z,7
2022-12-02T12:36:17.071Z,8
2022-12-02T12:37:17.061Z,7
2022-12-02T12:38:17.096Z,8
2022-12-02T12:39:17.082Z,9
2022-12-02T12:40:17.098Z,8
2022-12-02T12:41:37.041Z,9
2022-12-02T12:42:17.068Z,10
2022-12-02T12:43:17.072Z,7
2022-12-02T12:44:17.068Z,8
2022-12-02T12:45:17.065Z,8
2022-12-02T12:46:17.115Z,9
2022-12-02T12:47:22.185Z,8
2022-12-02T12:48:17.066Z,8
2022-12-02T12:49:17.226Z,9
2022-12-02T12:50:17.051Z,9
2022-12-02T12:51:17.082Z,9
2022-12-02T12:52:17.081Z,9
2022-12-02T12:53:17.073Z,9
2022-12-02T12:54:17.069Z,10
2022-12-02T12:55:17.071Z,10
2022-12-02T12:56:17.091Z,8
2022-12-02T12:57:17.066Z,9
2022-12-02T12:58:17.062Z,8
2022-12-02T12:59:17.080Z,11
2022-12-02T13:00:17.067Z,9
2022-12-02T13:01:21.657Z,10
2022-12-02T13:02:17.181Z,9
2022-12-02T13:03:17.122Z,9
2022-12-02T13:04:17.071Z,9
2022-12-02T13:05:17.120Z,11
2022-12-02T13:06:17.065Z,8
2022-12-02T13:07:17.066Z,11
2022-12-02T13:08:17.137Z,12
2022-12-02T13:09:17.096Z,11
2022-12-02T13:10:17.054Z,9
2022-12-02T13:11:17.060Z,10
2022-12-02T13:12:17.067Z,10
2022-12-02T13:13:18.110Z,9
2022-12-02T13:14:17.062Z,10
2022-12-02T13:15:17.065Z,10
2022-12-02T13:16:17.125Z,10
2022-12-02T13:17:17.103Z,9
2022-12-02T13:18:17.066Z,10
2022-12-02T13:19:17.055Z,10
2022-12-02T13:20:17.069Z,11
2022-12-02T13:21:17.067Z,11
2022-12-02T13:22:17.118Z,11
2022-12-02T13:23:17.059Z,9
2022-12-02T13:24:17.053Z,9
2022-12-02T13:25:17.780Z,10
2022-12-02T13:26:17.111Z,12
2022-12-02T13:27:17.044Z,10
2022-12-02T13:28:17.076Z,10
2022-12-02T13:29:17.059Z,10
2022-12-02T13:30:17.063Z,13
2022-12-02T13:31:17.141Z,12
2022-12-02T13:32:17.060Z,13
2022-12-02T13:33:17.055Z,12
2022-12-02T13:34:17.052Z,11
2022-12-02T13:35:22.156Z,11
2022-12-02T13:36:17.091Z,11
2022-12-02T13:37:17.052Z,13
2022-12-02T13:38:17.069Z,13
2022-12-02T13:39:17.071Z,15
2022-12-02T13:40:17.058Z,13
2022-12-02T13:41:17.058Z,10
2022-12-02T13:42:17.063Z,11
2022-12-02T13:43:17.062Z,10
2022-12-02T13:44:17.069Z,10
2022-12-02T13:45:17.091Z,11
2022-12-02T13:46:17.167Z,10
2022-12-02T13:47:17.071Z,11
2022-12-02T13:48:17.077Z,10
2022-12-02T13:49:17.115Z,9
2022-12-02T13:50:17.048Z,10
2022-12-02T13:51:17.079Z,9
2022-12-02T13:52:17.061Z,10
2022-12-02T13:53:27.108Z,11
2022-12-02T13:54:17.070Z,9
2022-12-02T13:55:17.079Z,10
2022-12-02T13:56:17.064Z,9
2022-12-02T13:57:17.036Z,9
2022-12-02T13:58:17.113Z,10
2022-12-02T13:59:17.065Z,10
2022-12-02T14:00:17.049Z,9
2022-12-02T14:01:17.104Z,10
2022-12-02T14:02:17.058Z,11
2022-12-02T14:03:17.117Z,11
2022-12-02T14:04:17.101Z,10
2022-12-02T14:05:17.058Z,11
2022-12-02T14:06:17.066Z,11
2022-12-02T14:07:17.055Z,13
2022-12-02T14:08:17.124Z,12
2022-12-02T14:09:17.048Z,11
2022-12-02T14:10:17.066Z,11
2022-12-02T14:11:21.213Z,10
2022-12-02T14:12:17.086Z,13
2022-12-02T14:13:21.041Z,9
2022-12-02T14:14:17.050Z,9
2022-12-02T14:15:17.052Z,10
2022-12-02T14:16:17.112Z,10
2022-12-02T14:17:17.052Z,10
2022-12-02T14:18:17.058Z,10
2022-12-02T14:19:17.087Z,10
2022-12-02T14:20:17.068Z,10
2022-12-02T14:21:17.051Z,10
2022-12-02T14:22:17.054Z,10
2022-12-02T14:23:17.060Z,10
2022-12-02T14:24:17.189Z,32
2022-12-02T14:25:17.069Z,17
2022-12-02T14:26:17.063Z,15
2022-12-02T14:27:17.058Z,11
2022-12-02T14:28:17.045Z,12
2022-12-02T14:29:17.042Z,11
2022-12-02T14:30:17.064Z,14
2022-12-02T14:31:25.475Z,12
2022-12-02T14:32:17.066Z,11
2022-12-02T14:33:17.083Z,13
2022-12-02T14:34:17.069Z,12
2022-12-02T14:35:17.051Z,12